Time;durP1;ratioP1;P1;durP2;ratioP2;P2;SDS_P1;SDS_P2;PMS_P1;PMS_P2;Temp;Humidity;BMP_temperature;BMP_pressure;BME280_temperature;BME280_humidity;BME280_pressure;Samples;Min_cycle;Max_cycle;Signal;HPM_P1;HPM_P2
2021/11/27 00:01:01;;;;;;;0.40;0.40;;;3.60;96.90;;;;;;4958246;29;20466;-69
2021/11/27 00:03:28;;;;;;;0.40;0.40;;;3.60;96.70;;;;;;4958532;29;20587;-68
2021/11/27 00:05:55;;;;;;;0.30;0.30;;;3.50;96.70;;;;;;4957727;29;20205;-67
2021/11/27 00:08:21;;;;;;;0.30;0.30;;;3.40;96.70;;;;;;4958249;28;20637;-69
2021/11/27 00:10:50;;;;;;;0.40;0.40;;;3.30;96.90;;;;;;4958285;29;20558;-69
2021/11/27 00:13:17;;;;;;;3.22;1.02;;;3.40;97.00;;;;;;4958387;29;20235;-69
2021/11/27 00:15:43;;;;;;;0.30;0.30;;;3.40;97.00;;;;;;4958346;28;20184;-68
2021/11/27 00:18:11;;;;;;;0.30;0.30;;;3.50;97.00;;;;;;4958009;29;20554;-68
2021/11/27 00:20:42;;;;;;;0.30;0.30;;;3.60;97.00;;;;;;4958156;28;20612;-69
2021/11/27 00:23:09;;;;;;;0.30;0.30;;;3.60;96.80;;;;;;4958007;28;20636;-69
2021/11/27 00:25:35;;;;;;;0.30;0.30;;;3.60;96.70;;;;;;4957995;29;20551;-68
2021/11/27 00:28:01;;;;;;;0.40;0.40;;;3.60;96.70;;;;;;4957906;29;20176;-69
2021/11/27 00:30:34;;;;;;;0.30;0.30;;;3.50;96.80;;;;;;4957887;28;20193;-68
2021/11/27 00:33:00;;;;;;;0.40;0.40;;;3.50;97.20;;;;;;4957796;28;20171;-69
2021/11/27 00:35:26;;;;;;;0.40;0.40;;;3.50;96.70;;;;;;4957841;28;20599;-69
2021/11/27 00:37:54;;;;;;;0.30;0.30;;;3.50;96.70;;;;;;4957699;28;20205;-69
2021/11/27 00:40:20;;;;;;;0.30;0.30;;;3.50;96.70;;;;;;4957787;28;20206;-69
2021/11/27 00:42:46;;;;;;;0.40;0.40;;;3.40;96.50;;;;;;4957652;29;20182;-68
2021/11/27 00:45:14;;;;;;;0.40;0.40;;;3.50;96.60;;;;;;4957759;28;20668;-70
2021/11/27 00:47:42;;;;;;;0.40;0.40;;;3.50;96.50;;;;;;4957551;28;20212;-69
2021/11/27 00:50:09;;;;;;;0.40;0.40;;;3.60;96.60;;;;;;4957411;29;20207;-69
2021/11/27 00:52:35;;;;;;;0.30;0.30;;;3.60;96.30;;;;;;4957136;28;20180;-67
2021/11/27 00:55:01;;;;;;;0.40;0.40;;;3.60;96.30;;;;;;4956852;29;20179;-69
2021/11/27 00:57:27;;;;;;;0.40;0.40;;;3.60;96.40;;;;;;4957284;29;20215;-69
2021/11/27 00:59:53;;;;;;;0.30;0.30;;;3.60;96.20;;;;;;4957630;28;20240;-69
2021/11/27 01:02:19;;;;;;;0.30;0.30;;;3.60;96.10;;;;;;4957312;29;20159;-69
2021/11/27 01:04:45;;;;;;;0.30;0.30;;;3.60;96.20;;;;;;4957303;28;20212;-69
2021/11/27 01:07:10;;;;;;;0.30;0.30;;;3.60;96.10;;;;;;4957111;28;20597;-68
2021/11/27 01:09:36;;;;;;;0.30;0.30;;;3.60;96.20;;;;;;4957204;29;20230;-67
2021/11/27 01:12:03;;;;;;;0.30;0.30;;;3.70;96.20;;;;;;4957307;29;20243;-69
2021/11/27 01:14:29;;;;;;;0.30;0.30;;;3.60;96.00;;;;;;4957231;28;20262;-69
2021/11/27 01:17:01;;;;;;;0.30;0.30;;;3.60;95.80;;;;;;4957473;28;20619;-69
2021/11/27 01:19:27;;;;;;;0.30;0.30;;;3.60;95.90;;;;;;4955794;29;20911;-69
2021/11/27 01:22:04;;;;;;;0.30;0.30;;;3.70;95.80;;;;;;4956837;29;20253;-69
2021/11/27 01:24:30;;;;;;;0.40;0.40;;;3.60;95.70;;;;;;4957086;28;20450;-69
2021/11/27 01:26:58;;;;;;;0.40;0.40;;;3.60;95.80;;;;;;4957069;28;20231;-69
2021/11/27 01:29:24;;;;;;;0.30;0.30;;;3.60;96.00;;;;;;4956821;29;20953;-69
2021/11/27 01:31:50;;;;;;;0.30;0.30;;;3.50;95.80;;;;;;4956743;28;20333;-68
2021/11/27 01:34:16;;;;;;;0.30;0.30;;;3.40;95.90;;;;;;4956955;28;20179;-69
2021/11/27 01:36:42;;;;;;;0.40;0.40;;;3.40;95.90;;;;;;4956632;29;20195;-69
2021/11/27 01:39:08;;;;;;;0.30;0.30;;;3.40;96.00;;;;;;4956663;28;20454;-69
2021/11/27 01:41:35;;;;;;;0.30;0.30;;;3.40;96.10;;;;;;4956525;29;20438;-68
2021/11/27 01:44:01;;;;;;;0.30;0.30;;;3.40;95.80;;;;;;4956974;29;20413;-68
2021/11/27 01:46:28;;;;;;;0.30;0.30;;;3.30;95.90;;;;;;4956579;28;20745;-68
2021/11/27 01:48:53;;;;;;;0.30;0.30;;;3.30;96.00;;;;;;4956350;28;20410;-68
2021/11/27 01:51:21;;;;;;;0.30;0.30;;;3.30;96.00;;;;;;4956366;29;20195;-68
2021/11/27 01:53:53;;;;;;;0.30;0.30;;;3.40;95.90;;;;;;4956538;28;20238;-68
2021/11/27 01:56:22;;;;;;;0.30;0.30;;;3.40;96.00;;;;;;4956525;28;20535;-68
2021/11/27 01:58:49;;;;;;;0.40;0.40;;;3.40;96.10;;;;;;4956176;29;20168;-69
2021/11/27 02:01:19;;;;;;;0.30;0.30;;;3.40;96.00;;;;;;4956201;28;20226;-69
2021/11/27 02:03:46;;;;;;;0.30;0.30;;;3.40;96.00;;;;;;4956336;29;20207;-68
2021/11/27 02:06:14;;;;;;;0.30;0.30;;;3.40;96.10;;;;;;4955789;28;20239;-69
2021/11/27 02:08:40;;;;;;;0.30;0.30;;;3.50;96.20;;;;;;4956015;29;20647;-69
2021/11/27 02:11:08;;;;;;;0.30;0.30;;;3.50;96.20;;;;;;4956149;29;20288;-69
2021/11/27 02:13:33;;;;;;;0.30;0.30;;;3.60;96.20;;;;;;4956047;29;20172;-69
2021/11/27 02:15:59;;;;;;;0.30;0.30;;;3.60;96.40;;;;;;4956037;29;20196;-68
2021/11/27 02:18:25;;;;;;;0.30;0.30;;;3.60;96.30;;;;;;4955902;29;20182;-68
2021/11/27 02:21:04;;;;;;;0.30;0.30;;;3.60;96.10;;;;;;4955995;29;20196;-69
2021/11/27 02:23:31;;;;;;;0.30;0.30;;;3.50;96.00;;;;;;4955843;28;20171;-68
2021/11/27 02:26:01;;;;;;;0.30;0.30;;;3.50;96.20;;;;;;4955754;28;20215;-68
2021/11/27 02:28:29;;;;;;;0.40;0.40;;;3.50;96.30;;;;;;4955734;28;20207;-69
2021/11/27 02:30:55;;;;;;;0.30;0.30;;;3.50;96.40;;;;;;4955775;28;20204;-69
2021/11/27 02:33:21;;;;;;;0.30;0.30;;;3.40;96.30;;;;;;4955712;29;20183;-69
2021/11/27 02:35:46;;;;;;;0.30;0.30;;;3.30;96.50;;;;;;4955845;29;20182;-68
2021/11/27 02:38:12;;;;;;;0.40;0.40;;;3.30;96.70;;;;;;4955553;28;20251;-69
2021/11/27 02:40:38;;;;;;;0.30;0.30;;;3.20;96.60;;;;;;4955542;28;20196;-69
2021/11/27 02:43:04;;;;;;;0.30;0.30;;;3.20;96.80;;;;;;4955665;28;20328;-69
2021/11/27 02:45:30;;;;;;;0.30;0.30;;;3.20;96.90;;;;;;4955714;28;20708;-69
2021/11/27 02:47:56;;;;;;;0.30;0.30;;;3.10;97.00;;;;;;4955419;28;20303;-69
2021/11/27 02:50:21;;;;;;;0.37;0.37;;;3.00;97.30;;;;;;4955535;28;20192;-68
2021/11/27 02:52:47;;;;;;;0.30;0.30;;;3.00;97.90;;;;;;4956178;29;20528;-68
2021/11/27 02:55:13;;;;;;;0.40;0.40;;;3.00;97.50;;;;;;4955457;29;20180;-67
2021/11/27 02:57:39;;;;;;;0.30;0.30;;;3.00;97.40;;;;;;4955353;28;20249;-69
2021/11/27 03:00:08;;;;;;;0.33;0.33;;;3.00;97.40;;;;;;4955196;29;20214;-68
2021/11/27 03:02:35;;;;;;;0.30;0.30;;;3.00;97.50;;;;;;4954072;29;20210;-69
2021/11/27 03:05:02;;;;;;;0.30;0.30;;;2.80;97.70;;;;;;4955354;28;20265;-69
2021/11/27 03:07:28;;;;;;;0.30;0.30;;;2.90;98.10;;;;;;4955600;28;20171;-69
2021/11/27 03:09:54;;;;;;;0.33;0.33;;;3.00;98.00;;;;;;4955157;28;20710;-69
2021/11/27 03:12:20;;;;;;;0.30;0.30;;;3.00;97.90;;;;;;4955391;28;20210;-69
2021/11/27 03:14:46;;;;;;;0.38;0.38;;;3.10;98.20;;;;;;4955406;28;20184;-67
2021/11/27 03:17:12;;;;;;;0.30;0.30;;;3.10;98.10;;;;;;4957013;28;20232;-69
2021/11/27 03:19:41;;;;;;;0.30;0.30;;;3.10;98.00;;;;;;4959222;29;20207;-68
2021/11/27 03:22:08;;;;;;;0.30;0.30;;;3.20;98.10;;;;;;4959335;29;20184;-69
2021/11/27 03:24:35;;;;;;;0.40;0.40;;;3.30;98.00;;;;;;4959046;28;20664;-69
2021/11/27 03:27:00;;;;;;;0.30;0.30;;;3.20;97.90;;;;;;4959091;28;20315;-69
2021/11/27 03:29:26;;;;;;;0.30;0.30;;;3.30;98.10;;;;;;4959015;28;20229;-69
2021/11/27 03:32:04;;;;;;;0.40;0.40;;;3.40;98.10;;;;;;4958991;28;20195;-70
2021/11/27 03:34:30;;;;;;;0.30;0.30;;;3.50;97.90;;;;;;4959442;28;20410;-68
2021/11/27 03:36:57;;;;;;;0.30;0.30;;;3.60;97.70;;;;;;4959220;29;20545;-69
2021/11/27 03:39:22;;;;;;;0.30;0.30;;;3.70;97.50;;;;;;4957604;29;20188;-69
2021/11/27 03:41:49;;;;;;;0.40;0.40;;;3.60;97.40;;;;;;4958715;29;20526;-68
2021/11/27 03:44:15;;;;;;;0.30;0.30;;;3.60;97.50;;;;;;4958809;28;20413;-69
2021/11/27 03:46:41;;;;;;;0.40;0.40;;;3.60;97.40;;;;;;4958949;28;20181;-68
2021/11/27 03:49:07;;;;;;;0.30;0.30;;;3.70;97.60;;;;;;4956998;29;20640;-69
2021/11/27 03:51:33;;;;;;;0.30;0.30;;;3.50;97.50;;;;;;4958335;28;20431;-69
2021/11/27 03:53:58;;;;;;;0.40;0.40;;;3.50;97.80;;;;;;4958661;29;20181;-69
2021/11/27 03:56:27;;;;;;;0.30;0.30;;;3.40;98.00;;;;;;4958728;29;20235;-68
2021/11/27 03:58:55;;;;;;;0.30;0.30;;;3.50;98.30;;;;;;4958441;29;20173;-68
2021/11/27 04:01:23;;;;;;;0.32;0.32;;;3.40;98.20;;;;;;4958299;28;20204;-67
2021/11/27 04:03:51;;;;;;;0.30;0.30;;;3.20;98.20;;;;;;4958440;28;20640;-69
2021/11/27 04:06:18;;;;;;;0.30;0.30;;;3.20;98.70;;;;;;4958319;29;20691;-69
2021/11/27 04:08:44;;;;;;;0.40;0.40;;;3.30;98.80;;;;;;4958282;28;20172;-68
2021/11/27 04:11:10;;;;;;;0.30;0.30;;;3.30;98.80;;;;;;4958344;29;20329;-67
2021/11/27 04:13:36;;;;;;;0.30;0.30;;;3.40;98.80;;;;;;4958264;28;20255;-68
2021/11/27 04:16:03;;;;;;;0.30;0.30;;;3.40;98.80;;;;;;4958348;28;20419;-69
2021/11/27 04:18:30;;;;;;;0.35;0.35;;;3.40;98.90;;;;;;4958039;28;20415;-68
2021/11/27 04:20:55;;;;;;;0.30;0.30;;;3.30;99.00;;;;;;4958011;29;20196;-69
2021/11/27 04:23:21;;;;;;;0.40;0.40;;;3.40;99.10;;;;;;4958167;28;20663;-70
2021/11/27 04:25:48;;;;;;;0.30;0.30;;;3.30;99.00;;;;;;4958065;29;20461;-67
2021/11/27 04:28:14;;;;;;;0.38;0.38;;;3.20;99.00;;;;;;4957733;28;20173;-69
2021/11/27 04:30:40;;;;;;;0.38;0.38;;;3.00;99.20;;;;;;4957962;28;20195;-69
2021/11/27 04:33:06;;;;;;;0.30;0.30;;;3.10;99.50;;;;;;4958098;28;20173;-68
2021/11/27 04:35:33;;;;;;;0.30;0.30;;;3.20;99.50;;;;;;4957955;28;20176;-68
2021/11/27 04:38:00;;;;;;;0.40;0.40;;;3.10;99.40;;;;;;4957747;29;20192;-68
2021/11/27 04:40:26;;;;;;;0.40;0.40;;;3.00;99.50;;;;;;4957809;29;20223;-69
2021/11/27 04:42:52;;;;;;;0.38;0.38;;;3.00;99.50;;;;;;4957689;28;20223;-68
2021/11/27 04:45:19;;;;;;;0.30;0.30;;;3.00;99.60;;;;;;4957790;28;20204;-67
2021/11/27 04:47:45;;;;;;;0.40;0.40;;;3.00;99.70;;;;;;4957462;29;20236;-69
2021/11/27 04:50:11;;;;;;;0.37;0.37;;;3.00;99.70;;;;;;4957612;28;20185;-68
2021/11/27 04:52:40;;;;;;;0.30;0.30;;;3.00;99.80;;;;;;4957542;28;20177;-69
2021/11/27 04:55:06;;;;;;;0.30;0.30;;;3.20;99.70;;;;;;4957624;28;20180;-69
2021/11/27 04:57:33;;;;;;;0.30;0.30;;;3.20;99.50;;;;;;4957374;29;20169;-69
2021/11/27 04:59:59;;;;;;;0.30;0.30;;;3.20;99.40;;;;;;4957260;29;20207;-69
2021/11/27 05:02:25;;;;;;;0.30;0.30;;;3.10;99.60;;;;;;4957372;29;20169;-70
2021/11/27 05:04:50;;;;;;;0.30;0.30;;;3.30;99.80;;;;;;4957296;29;20460;-69
2021/11/27 05:07:16;;;;;;;0.30;0.30;;;3.40;99.70;;;;;;4957247;28;20193;-69
2021/11/27 05:09:42;;;;;;;0.30;0.30;;;3.30;99.40;;;;;;4957391;29;20531;-68
2021/11/27 05:12:08;;;;;;;0.40;0.40;;;3.30;99.50;;;;;;4957154;28;20252;-69
2021/11/27 05:14:33;;;;;;;0.30;0.30;;;3.20;99.40;;;;;;4957154;28;20173;-69
2021/11/27 05:16:59;;;;;;;0.30;0.30;;;3.10;99.60;;;;;;4957096;29;20195;-69
2021/11/27 05:19:25;;;;;;;0.33;0.33;;;3.10;99.80;;;;;;4957007;28;20638;-68
2021/11/27 05:21:50;;;;;;;0.30;0.30;;;3.40;99.80;;;;;;4956929;29;20279;-68
2021/11/27 05:24:16;;;;;;;0.30;0.30;;;3.40;99.50;;;;;;4957144;29;20258;-69
2021/11/27 05:26:42;;;;;;;0.30;0.30;;;3.40;99.40;;;;;;4957056;28;20177;-69
2021/11/27 05:29:08;;;;;;;0.40;0.40;;;3.40;99.40;;;;;;4956784;29;20560;-68
2021/11/27 05:31:34;;;;;;;0.33;0.33;;;3.50;99.30;;;;;;4956774;29;20229;-68
2021/11/27 05:36:27;;;;;;;0.30;0.30;;;3.80;98.90;;;;;;4956829;28;20255;-69
2021/11/27 05:38:53;;;;;;;0.32;0.32;;;3.80;98.70;;;;;;4956343;28;20169;-67
2021/11/27 05:41:19;;;;;;;0.37;0.37;;;3.90;98.60;;;;;;4956510;28;20192;-69
2021/11/27 05:43:45;;;;;;;0.30;0.30;;;3.70;98.40;;;;;;4956570;28;20174;-68
2021/11/27 05:46:11;;;;;;;0.30;0.30;;;3.80;98.60;;;;;;4956511;28;20208;-68
2021/11/27 05:48:37;;;;;;;0.30;0.30;;;3.80;98.30;;;;;;4956407;28;20405;-69
2021/11/27 05:51:04;;;;;;;0.32;0.32;;;3.90;98.30;;;;;;4956584;28;20200;-70
2021/11/27 05:53:30;;;;;;;0.30;0.30;;;4.00;98.00;;;;;;4956959;28;20166;-69
2021/11/27 05:55:55;;;;;;;0.30;0.30;;;4.00;97.70;;;;;;4956501;28;20180;-69
2021/11/27 05:58:22;;;;;;;0.32;0.32;;;3.90;97.70;;;;;;4956152;28;20441;-69
2021/11/27 06:00:50;;;;;;;0.30;0.30;;;3.90;98.10;;;;;;4954732;29;20225;-69
2021/11/27 06:03:16;;;;;;;0.40;0.40;;;4.00;98.00;;;;;;4956591;29;20228;-68
2021/11/27 06:05:42;;;;;;;0.40;0.40;;;3.80;98.00;;;;;;4956230;28;20212;-69
2021/11/27 06:08:08;;;;;;;0.30;0.30;;;4.00;97.90;;;;;;4956042;29;20177;-69
2021/11/27 06:10:34;;;;;;;0.30;0.30;;;4.10;97.60;;;;;;4956261;28;20434;-67
2021/11/27 06:13:00;;;;;;;0.30;0.30;;;4.10;97.40;;;;;;4956034;29;20172;-69
2021/11/27 06:15:27;;;;;;;0.30;0.30;;;3.90;97.50;;;;;;4956056;29;20190;-70
2021/11/27 06:17:53;;;;;;;0.40;0.40;;;3.80;97.60;;;;;;4955968;28;20308;-70
2021/11/27 06:20:20;;;;;;;0.30;0.30;;;4.00;97.60;;;;;;4954667;29;20252;-69
2021/11/27 06:22:46;;;;;;;0.30;0.30;;;4.10;97.50;;;;;;4955892;28;20173;-69
2021/11/27 06:25:12;;;;;;;0.30;0.30;;;3.80;97.30;;;;;;4955931;29;20205;-68
2021/11/27 06:27:38;;;;;;;0.30;0.30;;;3.70;97.70;;;;;;4955656;28;20411;-69
2021/11/27 06:30:08;;;;;;;0.38;0.38;;;4.00;97.90;;;;;;4954422;29;20444;-69
2021/11/27 06:32:34;;;;;;;0.40;0.40;;;4.10;97.70;;;;;;4955662;29;20170;-69
2021/11/27 06:34:59;;;;;;;0.40;0.40;;;4.20;97.40;;;;;;4955836;29;20229;-69
2021/11/27 06:37:25;;;;;;;0.30;0.30;;;4.20;97.30;;;;;;4955733;29;20488;-70
2021/11/27 06:39:51;;;;;;;0.40;0.40;;;4.00;97.20;;;;;;4955515;29;20242;-70
2021/11/27 06:42:17;;;;;;;0.40;0.40;;;4.00;97.20;;;;;;4955620;28;20172;-68
2021/11/27 06:44:47;;;;;;;0.30;0.30;;;4.00;97.30;;;;;;4955545;28;20665;-70
2021/11/27 06:47:23;;;;;;;0.30;0.30;;;4.20;97.30;;;;;;4955500;28;20638;-70
2021/11/27 06:49:50;;;;;;;0.40;0.40;;;4.40;97.20;;;;;;4955678;28;20181;-69
2021/11/27 06:52:17;;;;;;;0.30;0.30;;;4.50;96.90;;;;;;4954608;28;20173;-68
2021/11/27 06:54:43;;;;;;;0.30;0.30;;;4.60;96.70;;;;;;4955460;28;20558;-68
2021/11/27 06:57:09;;;;;;;0.30;0.30;;;4.20;96.50;;;;;;4955258;29;20192;-68
2021/11/27 06:59:36;;;;;;;0.38;0.38;;;4.30;97.00;;;;;;4954065;29;20721;-68
2021/11/27 07:02:02;;;;;;;0.30;0.30;;;4.30;96.80;;;;;;4954182;29;20543;-69
2021/11/27 07:04:28;;;;;;;0.30;0.30;;;4.40;97.20;;;;;;4955495;28;20220;-69
2021/11/27 07:06:54;;;;;;;0.30;0.30;;;4.20;96.90;;;;;;4955476;28;20181;-69
2021/11/27 07:09:19;;;;;;;0.30;0.30;;;4.20;97.10;;;;;;4955148;29;20405;-69
2021/11/27 07:11:45;;;;;;;0.40;0.40;;;4.30;97.20;;;;;;4955194;28;20683;-68
2021/11/27 07:14:11;;;;;;;0.40;0.40;;;4.40;97.00;;;;;;4955352;28;20522;-70
2021/11/27 07:16:37;;;;;;;0.40;0.40;;;4.50;96.80;;;;;;4955457;29;20753;-68
2021/11/27 07:19:03;;;;;;;0.30;0.30;;;4.70;97.00;;;;;;4955207;29;20178;-69
2021/11/27 07:21:29;;;;;;;0.40;0.40;;;4.70;96.90;;;;;;4955058;28;20483;-69
2021/11/27 07:23:55;;;;;;;0.40;0.40;;;4.80;96.90;;;;;;4955219;28;20634;-68
2021/11/27 07:26:22;;;;;;;0.30;0.30;;;4.70;96.90;;;;;;4955257;29;20453;-68
2021/11/27 07:28:48;;;;;;;0.30;0.30;;;4.70;97.20;;;;;;4955064;28;20170;-68
2021/11/27 07:31:14;;;;;;;0.30;0.30;;;4.80;97.30;;;;;;4955026;28;20284;-69
2021/11/27 07:33:40;;;;;;;0.30;0.30;;;4.80;97.30;;;;;;4955094;28;20177;-69
2021/11/27 07:36:06;;;;;;;0.40;0.40;;;4.80;97.40;;;;;;4955706;29;20538;-70
2021/11/27 07:38:33;;;;;;;0.30;0.30;;;4.80;97.40;;;;;;4954942;28;20532;-68
2021/11/27 07:40:59;;;;;;;0.40;0.40;;;4.70;97.50;;;;;;4954911;29;20232;-67
2021/11/27 07:43:26;;;;;;;0.30;0.30;;;4.70;97.80;;;;;;4955133;28;20573;-69
2021/11/27 07:45:51;;;;;;;0.30;0.30;;;4.60;97.90;;;;;;4955088;28;20206;-69
2021/11/27 07:48:17;;;;;;;0.30;0.30;;;4.40;98.00;;;;;;4954873;29;20358;-69
2021/11/27 07:50:43;;;;;;;0.40;0.40;;;4.50;98.50;;;;;;4955138;28;20615;-70
2021/11/27 07:53:09;;;;;;;0.30;0.30;;;4.60;98.50;;;;;;4954939;29;20256;-68
2021/11/27 07:55:35;;;;;;;0.30;0.30;;;4.40;98.10;;;;;;4954911;29;20648;-68
2021/11/27 07:58:01;;;;;;;0.30;0.30;;;4.40;98.10;;;;;;4954798;29;20166;-68
2021/11/27 08:00:28;;;;;;;0.30;0.30;;;4.20;98.20;;;;;;4954776;28;20264;-69
2021/11/27 08:02:53;;;;;;;0.40;0.40;;;3.90;98.50;;;;;;4956005;28;20412;-67
2021/11/27 08:05:21;;;;;;;0.30;0.30;;;3.80;99.00;;;;;;4958247;28;20284;-69
2021/11/27 08:07:46;;;;;;;0.40;0.40;;;3.80;99.30;;;;;;4957003;29;20187;-69
2021/11/27 08:10:14;;;;;;;0.40;0.40;;;3.80;99.20;;;;;;4958363;28;20267;-68
2021/11/27 08:12:40;;;;;;;0.35;0.35;;;3.70;99.10;;;;;;4958291;28;20173;-68
2021/11/27 08:15:07;;;;;;;0.30;0.30;;;3.90;99.30;;;;;;4958451;28;20188;-69
2021/11/27 08:17:35;;;;;;;0.40;0.40;;;4.10;99.20;;;;;;4958011;28;20170;-69
2021/11/27 08:20:01;;;;;;;0.30;0.30;;;3.90;98.30;;;;;;4958066;28;20251;-69
2021/11/27 08:22:27;;;;;;;0.30;0.30;;;3.60;99.00;;;;;;4958077;28;20189;-68
2021/11/27 08:24:53;;;;;;;0.40;0.40;;;3.70;99.00;;;;;;4958025;28;20205;-68
2021/11/27 08:27:20;;;;;;;0.30;0.30;;;3.60;99.00;;;;;;4957952;28;20309;-68
2021/11/27 08:29:46;;;;;;;0.30;0.30;;;3.60;99.10;;;;;;4958090;29;20174;-68
2021/11/27 08:32:11;;;;;;;0.30;0.30;;;3.60;99.20;;;;;;4957866;29;20184;-69
2021/11/27 08:34:37;;;;;;;0.30;0.30;;;3.80;99.10;;;;;;4957894;29;20177;-69
2021/11/27 08:37:02;;;;;;;0.30;0.30;;;4.00;98.80;;;;;;4957709;29;20260;-69
2021/11/27 08:39:28;;;;;;;0.30;0.30;;;3.90;98.50;;;;;;4957869;29;20660;-69
2021/11/27 08:41:54;;;;;;;0.30;0.30;;;4.00;98.60;;;;;;4957759;29;20689;-69
2021/11/27 08:44:20;;;;;;;0.33;0.33;;;4.10;98.40;;;;;;4957873;29;20581;-68
2021/11/27 08:46:45;;;;;;;0.73;0.73;;;4.20;98.20;;;;;;4957702;29;20519;-70
2021/11/27 08:49:11;;;;;;;0.30;0.30;;;4.20;98.20;;;;;;4957496;29;20174;-68
2021/11/27 08:51:38;;;;;;;0.40;0.40;;;4.40;98.40;;;;;;4957511;29;20296;-68
2021/11/27 08:54:08;;;;;;;0.30;0.30;;;4.10;98.20;;;;;;4957561;28;20182;-69
2021/11/27 08:56:34;;;;;;;0.40;0.40;;;4.00;98.40;;;;;;4957759;28;20200;-69
2021/11/27 08:58:59;;;;;;;0.40;0.40;;;4.00;98.80;;;;;;4957438;28;20172;-68
2021/11/27 09:01:26;;;;;;;0.30;0.30;;;3.70;98.90;;;;;;4957207;28;20250;-68
2021/11/27 09:03:52;;;;;;;0.30;0.30;;;3.90;99.70;;;;;;4955845;29;20270;-68
2021/11/27 09:06:17;;;;;;;0.30;0.30;;;4.00;99.40;;;;;;4953587;29;20238;-68
2021/11/27 09:08:44;;;;;;;0.37;0.37;;;4.00;99.20;;;;;;4956478;29;20243;-69
2021/11/27 09:11:13;;;;;;;0.30;0.30;;;3.90;99.00;;;;;;4955195;29;20492;-69
2021/11/27 09:13:40;;;;;;;0.40;0.40;;;4.00;99.00;;;;;;4957454;28;20182;-69
2021/11/27 09:16:07;;;;;;;0.30;0.30;;;4.00;99.00;;;;;;4956985;29;20188;-68
2021/11/27 09:18:33;;;;;;;0.40;0.40;;;4.00;98.80;;;;;;4956910;28;20189;-67
2021/11/27 09:21:02;;;;;;;1.20;0.88;;;3.90;98.70;;;;;;4957079;28;20205;-68
2021/11/27 09:23:28;;;;;;;0.30;0.30;;;4.00;99.00;;;;;;4957231;28;20185;-69
2021/11/27 09:25:55;;;;;;;0.40;0.40;;;3.80;99.10;;;;;;4957100;28;20288;-68
2021/11/27 09:28:21;;;;;;;0.30;0.30;;;3.70;99.50;;;;;;4956939;29;20762;-67
2021/11/27 09:30:47;;;;;;;1.98;1.88;;;3.90;99.70;;;;;;4956900;29;20193;-68
2021/11/27 09:33:13;;;;;;;0.30;0.30;;;3.80;99.50;;;;;;4957081;28;20192;-69
2021/11/27 09:35:39;;;;;;;0.30;0.30;;;3.80;99.40;;;;;;4957087;28;20668;-67
2021/11/27 09:38:05;;;;;;;0.33;0.33;;;3.70;99.40;;;;;;4956702;29;20263;-69
2021/11/27 09:40:36;;;;;;;0.40;0.40;;;3.70;99.70;;;;;;4957206;29;20431;-68
2021/11/27 09:43:02;;;;;;;0.30;0.30;;;3.70;99.50;;;;;;4957590;29;20177;-69
2021/11/27 09:45:28;;;;;;;0.40;0.40;;;3.80;99.70;;;;;;4956802;28;20674;-68
2021/11/27 09:47:55;;;;;;;0.30;0.30;;;3.90;99.60;;;;;;4956498;29;20181;-69
2021/11/27 09:50:23;;;;;;;0.30;0.30;;;3.70;99.30;;;;;;4956730;28;20190;-69
2021/11/27 09:52:49;;;;;;;0.40;0.40;;;3.70;99.60;;;;;;4956997;28;20521;-68
2021/11/27 09:55:19;;;;;;;0.30;0.30;;;3.70;99.80;;;;;;4957002;29;20169;-67
2021/11/27 09:57:47;;;;;;;0.30;0.30;;;3.80;99.80;;;;;;4956612;28;20213;-69
2021/11/27 10:00:15;;;;;;;0.40;0.40;;;4.10;99.80;;;;;;4956648;29;20299;-68
2021/11/27 10:02:44;;;;;;;0.35;0.35;;;4.40;99.30;;;;;;4956319;28;20609;-69
2021/11/27 10:05:12;;;;;;;0.40;0.40;;;4.40;98.70;;;;;;4955129;28;20300;-68
2021/11/27 10:07:40;;;;;;;0.40;0.40;;;4.50;98.30;;;;;;4956448;29;20162;-69
2021/11/27 10:10:07;;;;;;;0.30;0.30;;;4.60;98.30;;;;;;4956123;28;20197;-69
2021/11/27 10:12:33;;;;;;;1.05;1.05;;;4.70;98.10;;;;;;4955001;29;20187;-69
2021/11/27 10:14:59;;;;;;;0.40;0.40;;;4.90;97.80;;;;;;4956443;29;20180;-68
2021/11/27 10:17:29;;;;;;;0.40;0.40;;;4.80;97.00;;;;;;4956127;28;20252;-69
2021/11/27 10:20:00;;;;;;;0.40;0.40;;;4.90;96.50;;;;;;4956387;29;20520;-70
2021/11/27 10:22:41;;;;;;;0.38;0.38;;;4.90;96.20;;;;;;4955940;28;20162;-68
2021/11/27 10:25:25;;;;;;;0.40;0.40;;;5.00;96.30;;;;;;4956042;28;20235;-69
2021/11/27 10:27:53;;;;;;;0.40;0.40;;;5.00;95.40;;;;;;4956055;29;20170;-67
2021/11/27 10:30:21;;;;;;;0.30;0.30;;;5.10;95.50;;;;;;4956203;28;20200;-69
2021/11/27 10:32:48;;;;;;;0.40;0.40;;;5.20;95.80;;;;;;4956417;28;20173;-68
2021/11/27 10:35:20;;;;;;;0.30;0.30;;;5.10;95.40;;;;;;4955859;28;20255;-68
2021/11/27 10:37:51;;;;;;;0.30;0.30;;;5.10;95.40;;;;;;4955666;29;20669;-68
2021/11/27 10:40:18;;;;;;;0.40;0.40;;;5.10;95.00;;;;;;4955668;28;20197;-68
2021/11/27 10:42:48;;;;;;;0.40;0.40;;;5.00;94.90;;;;;;4956226;29;20564;-67
2021/11/27 10:45:21;;;;;;;0.30;0.30;;;5.20;95.00;;;;;;4956106;28;20256;-69
2021/11/27 10:47:48;;;;;;;0.30;0.30;;;5.00;94.70;;;;;;4955900;29;20169;-69
2021/11/27 10:50:19;;;;;;;0.40;0.40;;;4.80;95.00;;;;;;4955770;29;20551;-68
2021/11/27 10:52:47;;;;;;;0.30;0.30;;;4.80;95.10;;;;;;4956105;28;20178;-68
2021/11/27 10:55:26;;;;;;;0.30;0.30;;;4.70;95.40;;;;;;4955982;28;20196;-69
2021/11/27 10:57:58;;;;;;;0.40;0.40;;;4.70;95.30;;;;;;4955344;29;20176;-67
2021/11/27 11:00:27;;;;;;;0.30;0.30;;;4.60;95.00;;;;;;4955496;28;20582;-69
2021/11/27 11:02:53;;;;;;;0.30;0.30;;;4.60;95.30;;;;;;4955546;29;20177;-68
2021/11/27 11:05:20;;;;;;;0.30;0.30;;;4.50;95.30;;;;;;4955567;28;20627;-70
2021/11/27 11:07:54;;;;;;;0.30;0.30;;;4.60;95.20;;;;;;4955331;28;20633;-68
2021/11/27 11:10:21;;;;;;;0.30;0.30;;;4.90;95.50;;;;;;4955605;28;20563;-69
2021/11/27 11:12:48;;;;;;;0.40;0.40;;;5.10;95.50;;;;;;4955215;29;20172;-68
2021/11/27 11:15:20;;;;;;;0.40;0.40;;;5.10;95.40;;;;;;4955387;29;20212;-68
2021/11/27 11:17:48;;;;;;;0.40;0.40;;;5.10;95.40;;;;;;4955127;29;20212;-68
2021/11/27 11:20:15;;;;;;;0.30;0.30;;;5.10;95.50;;;;;;4955250;28;20216;-69
2021/11/27 11:22:57;;;;;;;0.40;0.40;;;5.10;95.70;;;;;;4955546;29;20178;-68
2021/11/27 11:25:22;;;;;;;0.40;0.40;;;5.10;95.20;;;;;;4955410;28;20212;-69
2021/11/27 11:27:48;;;;;;;0.40;0.40;;;5.30;94.40;;;;;;4954932;29;20169;-69
2021/11/27 11:30:16;;;;;;;0.30;0.30;;;5.40;94.20;;;;;;4955152;28;20190;-68
2021/11/27 11:32:42;;;;;;;0.30;0.30;;;5.60;93.40;;;;;;4955617;29;20169;-68
2021/11/27 11:35:08;;;;;;;0.40;0.40;;;5.80;93.00;;;;;;4955674;28;20174;-69
2021/11/27 11:37:35;;;;;;;0.40;0.40;;;5.90;93.30;;;;;;4955828;28;20179;-68
2021/11/27 11:40:02;;;;;;;0.40;0.40;;;5.90;92.60;;;;;;4958784;28;20270;-69
2021/11/27 11:42:29;;;;;;;0.40;0.40;;;5.30;92.10;;;;;;4959211;29;20176;-69
2021/11/27 11:44:56;;;;;;;0.40;0.40;;;5.00;93.00;;;;;;4959029;29;20229;-68
2021/11/27 11:47:23;;;;;;;0.40;0.40;;;4.80;93.30;;;;;;4957695;29;20191;-68
2021/11/27 11:49:58;;;;;;;0.30;0.30;;;4.10;93.60;;;;;;4958993;28;20260;-70
2021/11/27 11:52:34;;;;;;;0.38;0.38;;;3.90;94.50;;;;;;4958852;29;20506;-68
2021/11/27 11:55:05;;;;;;;0.40;0.40;;;3.90;95.00;;;;;;4957567;29;20188;-68
2021/11/27 11:57:55;;;;;;;0.30;0.30;;;4.20;95.60;;;;;;4958654;29;20208;-70
2021/11/27 12:00:23;;;;;;;0.30;0.30;;;4.50;95.50;;;;;;4958520;28;20312;-69
2021/11/27 12:02:49;;;;;;;0.30;0.30;;;4.60;95.00;;;;;;4958475;29;20229;-68
2021/11/27 12:05:17;;;;;;;0.40;0.40;;;4.70;95.00;;;;;;4957257;29;20217;-67
2021/11/27 12:07:50;;;;;;;0.30;0.30;;;4.90;94.30;;;;;;4958472;28;20424;-68
2021/11/27 12:10:22;;;;;;;0.40;0.40;;;4.90;94.30;;;;;;4958493;29;20189;-68
2021/11/27 12:13:15;;;;;;;0.30;0.30;;;5.00;94.50;;;;;;4958569;29;20162;-69
2021/11/27 12:15:46;;;;;;;0.30;0.30;;;4.90;93.80;;;;;;4957333;29;20177;-68
2021/11/27 12:18:17;;;;;;;0.30;0.30;;;4.90;93.40;;;;;;4957955;28;20587;-67
2021/11/27 12:20:54;;;;;;;0.30;0.30;;;5.10;93.00;;;;;;4957243;29;20662;-69
2021/11/27 12:23:29;;;;;;;0.30;0.30;;;5.30;92.90;;;;;;4957461;29;20185;-68
2021/11/27 12:26:09;;;;;;;0.40;0.40;;;5.50;92.60;;;;;;4958037;29;20281;-69
2021/11/27 12:29:02;;;;;;;0.40;0.40;;;5.30;92.20;;;;;;4958196;29;20173;-69
2021/11/27 12:31:42;;;;;;;0.30;0.30;;;5.20;92.40;;;;;;4957526;29;20286;-69
2021/11/27 12:34:10;;;;;;;0.40;0.40;;;5.30;92.30;;;;;;4958253;29;20185;-68
2021/11/27 12:36:41;;;;;;;1.25;1.25;;;5.10;92.20;;;;;;4956528;28;20170;-70
2021/11/27 12:39:32;;;;;;;0.30;0.30;;;4.80;92.40;;;;;;4956453;29;20232;-69
2021/11/27 12:42:03;;;;;;;0.40;0.40;;;4.40;92.50;;;;;;4957720;28;20199;-67
2021/11/27 12:44:35;;;;;;;0.40;0.40;;;4.60;93.30;;;;;;4958039;29;20182;-69
2021/11/27 12:47:12;;;;;;;0.40;0.40;;;4.70;93.00;;;;;;4957815;29;20170;-69
2021/11/27 12:49:38;;;;;;;0.30;0.30;;;4.80;92.90;;;;;;4956295;28;20169;-68
2021/11/27 12:52:13;;;;;;;0.30;0.30;;;4.90;93.10;;;;;;4957519;29;20166;-68
2021/11/27 12:54:45;;;;;;;0.80;0.80;;;4.90;93.10;;;;;;4957587;29;20169;-67
2021/11/27 12:57:20;;;;;;;0.40;0.40;;;4.90;92.80;;;;;;4956057;29;20213;-69
2021/11/27 12:59:48;;;;;;;0.32;0.32;;;4.70;92.60;;;;;;4957354;28;20188;-69
2021/11/27 13:02:16;;;;;;;0.40;0.40;;;4.60;93.10;;;;;;4957341;28;20587;-69